• Join FlightAware (Why Join?)
  • Login
  • US Flag 
03:10PM EDT


 

Airport Tracker/Info


-or-


 

Live Flight TrackerFlight Track Log ✈ N379PK ✈ 06-May-2013 ✈ KLWS - KBOI

Flight Track Log - Related Links

Times and Time Zones

All times are in EDT time to prevent confusion due to time zone crossing. See the N379PK flight status page for this flight to view local times or setup timezone preferences in your user account.

Time Position Orientation Groundspeed Altitude Reporting Facility
EDT Latitude Longitude Course Direction KTS MPH feet Rate Location/Type
10:11AM 46.3108 -117.0833 167° South 165 190 5,600  Level Salt Lake Center
10:12AM 46.2631 -117.0639 164° South 170 196 7,500 1,860 Climbing Salt Lake Center
10:13AM 46.2136 -117.0489 168° South 176 203 9,500 1,740 Climbing Salt Lake Center
10:14AM 45.9982 -116.9046 168° South  Level Estimated
10:15AM 45.9358 -116.8839 167° South  Level FlightAware Approximate
10:15AM 46.1094 -117.0136 167° South 192 221 12,900  Level Salt Lake Center
10:16AM 45.8735 -116.8633 167° South  Level FlightAware Approximate
10:16AM 46.0564 -116.9958 167° South 195 224 14,600  Level Salt Lake Center
10:17AM 45.9933 -116.9772 168° South 199 229 16,600 1,680 Climbing Salt Lake Center
10:18AM 45.9422 -116.9592 166° South 197 227 18,100 1,440 Climbing Salt Lake Center
10:19AM 45.8850 -116.9417 168° South 196 226 19,800 900 Climbing Seattle Center
10:21AM 45.7650 -116.9028 167° South 236 272 21,100 420 Climbing Seattle Center
10:22AM 45.6947 -116.8806 168° South 256 295 21,100  Level Seattle Center
10:23AM 45.6097 -116.8531 167° South 259 298 21,100  Level Seattle Center
10:24AM 45.5411 -116.8319 168° South 262 302 21,100 -60 Level Seattle Center
10:25AM 45.4725 -116.8089 167° South 263 303 21,000 -60 Descending Seattle Center
10:26AM 45.3939 -116.7839 167° South 259 298 21,000  Level Seattle Center
10:28AM 45.2578 -116.7400 167° South 263 303 21,000  Level Salt Lake Center
10:31AM 45.1071 -116.6558 158° South  Level FlightAware Approximate
10:31AM 45.0414 -116.6739 158° South 262 302 21,000  Level Seattle Center
10:34AM 44.9584 -116.5972 167° South  Level FlightAware Approximate
10:34AM 44.8125 -116.6011 167° South 267 307 21,000  Level Salt Lake Center
10:36AM 44.6742 -116.5589 168° South 266 306 21,000 -300 Level Seattle Center
10:37AM 44.5917 -116.5339 168° South 270 311 20,100 -900 Descending Seattle Center
10:38AM 44.5056 -116.5067 167° South 281 323 19,200 -840 Descending Salt Lake Center
10:39AM 44.4319 -116.4839 168° South 283 326 18,400 -840 Descending Salt Lake Center
10:41AM 44.2756 -116.4375 168° South 279 321 16,700 -1,020 Descending Salt Lake Center
10:43AM 44.2065 -116.3898 144° Southeast  Level FlightAware Approximate
10:43AM 44.1225 -116.3903 144° Southeast 275 316 14,300  Level Salt Lake Center
10:44AM 44.0531 -116.3694 168° South 268 308 13,200 -600 Descending Salt Lake Center
10:45AM 43.9750 -116.3614 176° South 247 284 13,100 -720 Descending Salt Lake Center
10:46AM 43.9097 -116.3556 176° South 247 284 11,800 -1,620 Descending Salt Lake Center
10:47AM 43.8244 -116.3531 179° South 273 314 9,900 -1,680 Descending Salt Lake Center
10:49AM 43.7539 -116.3483 177° South 264 304 8,400 -1,620 Descending Salt Lake Center
10:50AM 43.6744 -116.3397 176° South 256 295 6,600 -1,440 Descending Salt Lake Center
10:52AM 43.5872 -116.2981 161° South 150 173 4,000 -1,020 Descending Salt Lake Center
10:53AM 43.5747 -116.2553 112° Southeast 138 159 3,500 -540 Descending Salt Lake Center
10:55AM 43.5644 -116.2229 180° South  Level Estimated
11:02AM 43.5644 -116.2229 180° South  Level Estimated